Time;durP1;ratioP1;P1;durP2;ratioP2;P2;SDS_P1;SDS_P2;PMS_P1;PMS_P2;Temp;Humidity;BMP_temperature;BMP_pressure;BME280_temperature;BME280_humidity;BME280_pressure;Samples;Min_cycle;Max_cycle;Signal;HPM_P1;HPM_P2
2022/12/28 05:05:26;;;;;;;0.95;0.95;;;7.00;99.90;;;;;;5244643;23;20237;-64
2022/12/28 05:07:52;;;;;;;1.30;0.93;;;7.00;99.90;;;;;;4976288;28;20186;-64
2022/12/28 05:10:17;;;;;;;1.17;1.10;;;7.00;99.90;;;;;;4976212;28;20272;-64
2022/12/28 05:12:43;;;;;;;1.00;0.90;;;7.00;99.90;;;;;;4974701;28;20180;-64
2022/12/28 05:15:09;;;;;;;1.10;1.10;;;7.00;99.90;;;;;;4976303;28;20225;-64
2022/12/28 05:17:35;;;;;;;1.25;1.00;;;6.90;99.90;;;;;;4976430;28;20181;-63
2022/12/28 05:20:01;;;;;;;2.60;0.90;;;6.90;99.90;;;;;;4976210;28;20642;-66
2022/12/28 05:22:27;;;;;;;0.85;0.85;;;6.90;99.90;;;;;;4976300;28;20520;-64
2022/12/28 05:24:53;;;;;;;0.83;0.70;;;6.90;99.90;;;;;;4975569;28;20289;-64
2022/12/28 05:27:18;;;;;;;0.80;0.77;;;6.90;99.90;;;;;;4976249;28;20167;-64
2022/12/28 05:29:44;;;;;;;1.13;1.03;;;6.90;99.90;;;;;;4976411;28;20176;-64
2022/12/28 05:32:09;;;;;;;1.13;0.90;;;6.90;99.90;;;;;;4976017;28;20518;-64
2022/12/28 05:34:35;;;;;;;0.93;0.93;;;6.90;99.90;;;;;;4973410;28;20230;-64
2022/12/28 05:37:01;;;;;;;0.70;0.70;;;6.90;99.90;;;;;;4975959;28;20169;-64
2022/12/28 05:39:26;;;;;;;0.60;0.60;;;6.90;99.90;;;;;;4974841;28;20240;-64
2022/12/28 05:41:52;;;;;;;0.80;0.80;;;7.00;99.90;;;;;;4969502;28;20218;-64
2022/12/28 05:44:17;;;;;;;0.73;0.73;;;7.00;99.90;;;;;;4955946;28;20217;-64
2022/12/28 05:46:43;;;;;;;0.93;0.87;;;7.10;99.90;;;;;;4956482;28;20315;-64
2022/12/28 05:49:09;;;;;;;2.10;0.60;;;7.10;99.90;;;;;;4964554;28;20176;-64
2022/12/28 05:51:34;;;;;;;1.63;0.80;;;7.10;99.90;;;;;;4975639;28;20410;-64
2022/12/28 05:54:04;;;;;;;0.70;0.70;;;7.10;99.90;;;;;;4975317;28;20202;-64
2022/12/28 05:56:31;;;;;;;0.77;0.77;;;7.10;99.90;;;;;;4975454;28;20168;-63
2022/12/28 05:58:58;;;;;;;0.50;0.50;;;7.20;99.90;;;;;;4975505;28;20176;-64
2022/12/28 06:01:26;;;;;;;1.40;1.30;;;7.20;99.90;;;;;;4975337;28;20183;-63
2022/12/28 06:04:00;;;;;;;0.82;0.60;;;7.30;99.90;;;;;;4974616;28;20239;-64
2022/12/28 06:06:26;;;;;;;0.80;0.80;;;7.30;99.90;;;;;;4975334;28;20199;-64
2022/12/28 06:08:52;;;;;;;0.80;0.80;;;7.40;99.90;;;;;;4975336;28;20171;-63
2022/12/28 06:11:20;;;;;;;3.30;0.60;;;7.40;99.90;;;;;;4975269;28;20481;-64
2022/12/28 06:13:46;;;;;;;0.50;0.50;;;7.50;99.90;;;;;;4974877;28;20206;-63
2022/12/28 06:16:17;;;;;;;0.63;0.63;;;7.50;99.90;;;;;;4975474;28;20187;-63
2022/12/28 06:18:44;;;;;;;0.55;0.55;;;7.60;99.90;;;;;;4970785;28;20217;-64
2022/12/28 06:21:15;;;;;;;1.52;1.02;;;7.50;99.90;;;;;;4975106;28;20182;-65
2022/12/28 06:23:42;;;;;;;0.73;0.70;;;7.60;99.90;;;;;;4974839;28;20204;-64
2022/12/28 06:26:09;;;;;;;0.50;0.50;;;7.60;99.90;;;;;;4975260;28;20176;-64
2022/12/28 06:28:36;;;;;;;1.02;0.98;;;7.60;99.90;;;;;;4975280;28;20176;-64
2022/12/28 06:31:10;;;;;;;1.67;0.80;;;7.60;99.90;;;;;;4966725;28;20198;-64
2022/12/28 06:33:35;;;;;;;1.17;0.88;;;7.70;99.90;;;;;;4955572;28;20180;-64
2022/12/28 06:36:02;;;;;;;0.70;0.70;;;7.70;99.90;;;;;;4955780;28;20662;-64
2022/12/28 06:38:31;;;;;;;8.48;1.30;;;7.80;99.90;;;;;;4955942;28;20180;-63
2022/12/28 06:41:02;;;;;;;0.63;0.57;;;7.80;99.90;;;;;;4955449;28;20172;-64
2022/12/28 06:43:33;;;;;;;0.40;0.40;;;7.80;99.90;;;;;;4986175;28;20177;-64
2022/12/28 06:45:59;;;;;;;0.60;0.60;;;7.80;99.90;;;;;;4961642;28;20196;-64
2022/12/28 06:48:26;;;;;;;0.65;0.60;;;7.80;99.90;;;;;;4965887;28;20223;-62
2022/12/28 06:50:55;;;;;;;1.35;1.25;;;7.80;99.90;;;;;;4963970;28;20171;-65
2022/12/28 06:53:21;;;;;;;0.52;0.52;;;7.70;99.90;;;;;;4962024;28;20248;-62
2022/12/28 06:56:14;;;;;;;0.70;0.70;;;7.70;99.90;;;;;;4965153;28;20585;-63
2022/12/28 06:58:41;;;;;;;0.55;0.55;;;7.60;99.90;;;;;;4954743;28;20193;-63
2022/12/28 07:01:26;;;;;;;0.70;0.70;;;7.60;99.90;;;;;;4974594;28;20541;-64
2022/12/28 07:03:54;;;;;;;0.90;0.88;;;7.60;99.90;;;;;;4974133;28;20207;-64
2022/12/28 07:06:22;;;;;;;1.67;0.80;;;7.60;99.90;;;;;;4974413;28;20238;-64
2022/12/28 07:08:49;;;;;;;0.77;0.75;;;7.50;99.90;;;;;;4974420;28;20172;-63
2022/12/28 07:11:20;;;;;;;0.65;0.65;;;7.50;99.90;;;;;;4970446;28;20190;-64
2022/12/28 07:13:46;;;;;;;0.70;0.70;;;7.50;99.90;;;;;;4964484;28;20291;-65
2022/12/28 07:16:17;;;;;;;2.15;1.40;;;7.50;99.90;;;;;;4963198;28;20194;-62
2022/12/28 07:18:43;;;;;;;0.60;0.60;;;7.50;99.90;;;;;;4964215;28;20430;-64
2022/12/28 07:21:15;;;;;;;2.25;0.88;;;7.60;99.90;;;;;;4965007;28;20207;-64
2022/12/28 07:23:41;;;;;;;0.80;0.80;;;7.60;99.90;;;;;;4963953;28;20219;-64
2022/12/28 07:26:11;;;;;;;1.80;0.70;;;7.60;99.90;;;;;;4963582;28;20199;-64
2022/12/28 07:28:38;;;;;;;0.60;0.60;;;7.60;99.90;;;;;;4961080;28;20408;-64
2022/12/28 07:31:05;;;;;;;0.50;0.50;;;7.60;99.90;;;;;;4963678;28;20187;-64
2022/12/28 07:33:31;;;;;;;1.27;0.93;;;7.60;99.90;;;;;;4966647;28;20180;-64
2022/12/28 07:35:57;;;;;;;1.30;0.77;;;7.60;99.90;;;;;;4974532;28;20180;-73
2022/12/28 07:38:23;;;;;;;1.23;0.90;;;7.70;99.90;;;;;;4974260;28;20233;-71
2022/12/28 07:40:48;;;;;;;0.80;0.80;;;7.70;99.90;;;;;;4974223;28;20258;-71
2022/12/28 07:43:14;;;;;;;0.70;0.70;;;7.70;99.90;;;;;;4973070;28;20183;-69
2022/12/28 07:45:39;;;;;;;1.63;0.80;;;7.70;99.90;;;;;;4961040;28;20593;-68
2022/12/28 07:48:05;;;;;;;0.87;0.87;;;7.70;99.90;;;;;;4974060;28;20178;-67
2022/12/28 07:50:31;;;;;;;1.33;1.00;;;7.70;99.90;;;;;;4973953;28;20235;-67
2022/12/28 07:52:56;;;;;;;3.43;1.20;;;7.70;99.90;;;;;;4969690;28;20654;-66
2022/12/28 07:55:23;;;;;;;0.70;0.70;;;7.70;99.90;;;;;;4953596;29;20270;-67
2022/12/28 07:57:51;;;;;;;1.10;0.60;;;7.70;99.90;;;;;;4956363;28;20507;-67
2022/12/28 08:00:17;;;;;;;2.35;1.10;;;7.70;99.90;;;;;;4958411;28;20180;-67
2022/12/28 08:02:42;;;;;;;0.85;0.65;;;7.70;99.90;;;;;;4957831;28;20219;-67
2022/12/28 08:05:08;;;;;;;0.90;0.83;;;7.70;99.90;;;;;;4957985;28;20213;-66
2022/12/28 08:07:34;;;;;;;1.90;0.90;;;7.70;99.90;;;;;;4957914;28;20651;-66
2022/12/28 08:09:59;;;;;;;0.97;0.97;;;7.70;99.90;;;;;;4971848;28;20265;-66
2022/12/28 08:12:25;;;;;;;1.13;1.13;;;7.70;99.90;;;;;;4977624;28;20307;-67
2022/12/28 08:14:50;;;;;;;1.63;0.97;;;7.70;99.90;;;;;;4976969;28;20227;-66
2022/12/28 08:17:16;;;;;;;1.47;1.37;;;7.70;99.90;;;;;;4977529;28;20191;-65
2022/12/28 08:19:41;;;;;;;1.33;0.93;;;7.80;99.90;;;;;;4977090;28;20198;-67
2022/12/28 08:22:07;;;;;;;4.10;1.13;;;7.90;99.90;;;;;;4975729;28;20588;-65
2022/12/28 08:24:34;;;;;;;1.20;1.10;;;8.00;99.90;;;;;;4957654;28;20690;-66
2022/12/28 08:26:59;;;;;;;2.05;1.42;;;8.00;99.90;;;;;;4957993;28;20168;-63
2022/12/28 08:29:25;;;;;;;1.37;1.27;;;8.00;99.90;;;;;;4957997;28;20609;-66
2022/12/28 08:31:51;;;;;;;1.03;1.03;;;8.00;99.90;;;;;;4957952;28;20177;-66
2022/12/28 08:34:21;;;;;;;1.00;0.90;;;8.10;99.90;;;;;;4957747;28;20215;-66
2022/12/28 08:36:47;;;;;;;1.00;1.00;;;8.10;99.90;;;;;;4969360;28;20527;-66
2022/12/28 08:39:13;;;;;;;1.47;1.00;;;8.10;99.90;;;;;;4969830;28;20187;-65
2022/12/28 08:41:38;;;;;;;1.15;0.93;;;8.20;99.90;;;;;;4974009;28;20173;-66
2022/12/28 08:44:05;;;;;;;0.80;0.80;;;8.30;99.90;;;;;;4973780;28;20724;-65
2022/12/28 08:46:33;;;;;;;0.60;0.60;;;8.40;99.90;;;;;;4966302;28;20194;-65
2022/12/28 08:48:59;;;;;;;1.08;1.08;;;8.40;99.90;;;;;;4959376;28;20199;-66
2022/12/28 08:51:28;;;;;;;0.70;0.70;;;8.50;99.90;;;;;;4971344;28;20227;-65
2022/12/28 08:53:54;;;;;;;0.70;0.70;;;8.70;99.90;;;;;;4976308;28;20569;-66
2022/12/28 08:56:23;;;;;;;1.20;1.10;;;8.80;99.90;;;;;;4975350;28;20183;-68
2022/12/28 08:58:49;;;;;;;1.50;1.40;;;8.80;99.90;;;;;;4955953;28;20204;-68
2022/12/28 09:01:23;;;;;;;0.77;0.77;;;8.90;99.90;;;;;;4976454;28;20235;-70
2022/12/28 09:03:51;;;;;;;1.23;1.15;;;9.00;99.90;;;;;;4959448;28;20216;-69
2022/12/28 09:06:19;;;;;;;1.15;1.10;;;9.10;99.90;;;;;;4966260;28;20188;-68
2022/12/28 09:08:48;;;;;;;0.70;0.70;;;9.10;99.90;;;;;;4976319;28;20179;-69
2022/12/28 09:11:14;;;;;;;2.05;1.67;;;9.20;99.90;;;;;;4975291;28;20526;-69
2022/12/28 09:13:40;;;;;;;1.27;1.17;;;9.20;99.90;;;;;;4974964;28;20176;-69
2022/12/28 09:16:11;;;;;;;1.67;1.57;;;9.30;99.90;;;;;;4974904;28;20246;-68
2022/12/28 09:18:38;;;;;;;1.58;1.48;;;9.30;99.90;;;;;;4975542;28;20780;-66
2022/12/28 09:21:12;;;;;;;2.00;1.77;;;9.40;99.90;;;;;;4974248;28;20180;-66
2022/12/28 09:23:38;;;;;;;1.33;1.23;;;9.70;99.90;;;;;;4975570;28;20211;-65
2022/12/28 09:26:04;;;;;;;3.25;1.30;;;9.80;99.90;;;;;;4976032;28;20192;-66
2022/12/28 09:28:30;;;;;;;1.57;1.47;;;9.90;99.90;;;;;;4966627;28;20632;-66
2022/12/28 09:30:55;;;;;;;1.60;1.50;;;9.90;99.90;;;;;;4956729;28;20206;-66
2022/12/28 09:36:05;;;;;;;0.93;0.93;;;10.10;99.90;;;;;;4975895;28;20617;-67
2022/12/28 09:38:30;;;;;;;1.57;1.47;;;10.20;99.90;;;;;;4966498;28;20205;-66
2022/12/28 09:40:57;;;;;;;1.30;1.23;;;10.20;99.90;;;;;;4956323;28;20178;-65
2022/12/28 09:43:25;;;;;;;1.60;1.50;;;10.40;99.90;;;;;;4962477;28;20180;-65
2022/12/28 09:45:53;;;;;;;1.30;1.30;;;10.50;99.90;;;;;;4975655;28;20414;-65
2022/12/28 09:48:22;;;;;;;3.10;1.80;;;10.70;99.90;;;;;;4975642;28;20783;-67
2022/12/28 09:50:49;;;;;;;1.43;1.30;;;10.80;99.90;;;;;;4975554;28;20415;-66
2022/12/28 09:53:29;;;;;;;1.00;1.00;;;10.90;99.90;;;;;;4957756;28;20425;-66
2022/12/28 09:56:14;;;;;;;0.93;0.93;;;11.20;99.90;;;;;;4956309;28;20437;-66
2022/12/28 09:58:43;;;;;;;1.27;1.03;;;11.50;99.90;;;;;;4967332;28;20777;-66
2022/12/28 10:01:12;;;;;;;1.30;1.30;;;11.70;99.90;;;;;;4975301;28;20438;-67
2022/12/28 10:03:40;;;;;;;1.50;1.40;;;11.60;99.90;;;;;;4974749;28;20421;-66
2022/12/28 10:06:14;;;;;;;1.23;1.13;;;11.50;99.90;;;;;;4974692;28;20485;-66
2022/12/28 10:08:58;;;;;;;1.50;1.40;;;11.40;99.90;;;;;;4975187;28;20927;-66
2022/12/28 10:11:38;;;;;;;1.67;1.20;;;11.30;99.90;;;;;;4975205;28;20411;-67
2022/12/28 10:14:19;;;;;;;1.60;1.50;;;11.20;99.90;;;;;;4974845;28;20800;-66
2022/12/28 10:16:45;;;;;;;1.70;1.60;;;11.20;99.90;;;;;;4975016;28;20772;-66
2022/12/28 10:19:16;;;;;;;1.10;1.10;;;11.10;99.90;;;;;;4975044;28;20451;-66
2022/12/28 10:21:43;;;;;;;2.60;1.70;;;11.10;99.90;;;;;;4974406;28;20398;-66
2022/12/28 10:24:11;;;;;;;1.67;1.27;;;11.10;99.90;;;;;;4974545;28;20466;-66
2022/12/28 10:26:37;;;;;;;1.57;1.47;;;11.10;99.90;;;;;;4973223;28;20425;-67
2022/12/28 10:29:03;;;;;;;4.00;3.50;;;11.10;99.90;;;;;;4974880;28;20411;-66
2022/12/28 10:31:40;;;;;;;2.03;1.37;;;11.10;99.90;;;;;;4974537;28;20841;-66
2022/12/28 10:34:19;;;;;;;1.30;1.20;;;11.10;99.90;;;;;;4974326;28;20206;-66
2022/12/28 10:36:46;;;;;;;1.73;1.60;;;11.10;99.90;;;;;;4974779;28;20414;-66
2022/12/28 10:39:22;;;;;;;2.17;1.67;;;11.10;99.90;;;;;;4974753;28;20475;-66
2022/12/28 10:41:48;;;;;;;1.33;1.13;;;10.80;99.90;;;;;;4974762;28;20494;-66
2022/12/28 10:44:28;;;;;;;1.13;1.13;;;10.70;99.90;;;;;;4972949;28;20880;-66
2022/12/28 10:47:26;;;;;;;1.70;1.60;;;10.80;99.90;;;;;;4974291;28;20253;-66
2022/12/28 10:49:52;;;;;;;2.00;1.50;;;10.80;99.90;;;;;;4952071;28;20421;-65
2022/12/28 10:52:19;;;;;;;1.60;1.50;;;10.90;99.90;;;;;;4974808;28;20423;-67
2022/12/28 10:54:46;;;;;;;2.67;1.80;;;10.90;99.90;;;;;;4973909;28;20462;-67
2022/12/28 10:57:27;;;;;;;1.63;1.53;;;10.90;99.90;;;;;;4974444;28;20773;-66
2022/12/28 11:00:14;;;;;;;1.63;1.53;;;10.90;99.90;;;;;;4953457;28;20499;-64
2022/12/28 11:02:39;;;;;;;1.40;1.30;;;11.00;99.90;;;;;;4955182;28;20417;-65
2022/12/28 11:05:05;;;;;;;1.00;1.00;;;11.00;99.90;;;;;;4954720;28;20474;-66
2022/12/28 11:07:34;;;;;;;1.77;1.00;;;11.00;99.90;;;;;;4955098;28;20183;-66
2022/12/28 11:10:26;;;;;;;1.20;1.10;;;11.00;99.90;;;;;;4954925;28;20181;-66
2022/12/28 11:12:57;;;;;;;1.40;1.30;;;11.10;99.90;;;;;;4954600;28;20494;-67
2022/12/28 11:15:26;;;;;;;1.10;1.10;;;11.10;99.90;;;;;;4954819;28;20431;-66
2022/12/28 11:18:01;;;;;;;3.77;1.43;;;11.20;99.90;;;;;;4954764;28;20436;-66
2022/12/28 11:20:36;;;;;;;1.33;1.20;;;11.20;99.90;;;;;;4954891;28;20950;-66
2022/12/28 11:23:05;;;;;;;1.07;1.07;;;11.30;99.90;;;;;;4954581;28;20797;-67
2022/12/28 11:25:33;;;;;;;1.50;1.43;;;11.30;99.90;;;;;;4955018;28;20831;-67
2022/12/28 11:28:04;;;;;;;1.53;1.43;;;11.30;99.90;;;;;;4954914;28;20379;-66
2022/12/28 11:30:30;;;;;;;1.90;1.40;;;11.30;99.90;;;;;;4955032;28;20413;-67
2022/12/28 11:32:58;;;;;;;2.77;1.23;;;11.30;99.90;;;;;;4955854;28;20440;-66
2022/12/28 11:35:30;;;;;;;1.60;1.50;;;11.20;99.90;;;;;;4990126;28;20446;-66
2022/12/28 11:38:02;;;;;;;0.90;0.90;;;11.00;99.90;;;;;;4959741;28;20413;-71
2022/12/28 11:40:43;;;;;;;0.83;0.83;;;10.90;99.90;;;;;;4969630;28;21004;-70
2022/12/28 11:43:27;;;;;;;1.50;1.40;;;10.70;99.90;;;;;;4962895;28;21186;-64
2022/12/28 11:46:19;;;;;;;0.70;0.70;;;10.60;99.90;;;;;;4964730;28;20434;-71
2022/12/28 11:48:58;;;;;;;2.25;1.05;;;10.60;99.90;;;;;;4966605;28;20496;-69
2022/12/28 11:51:25;;;;;;;0.67;0.67;;;10.60;99.90;;;;;;4970142;28;20183;-70
2022/12/28 11:54:29;;;;;;;0.70;0.70;;;10.70;99.90;;;;;;4976168;28;20448;-71
2022/12/28 11:56:58;;;;;;;0.70;0.70;;;10.80;99.90;;;;;;4938619;29;20448;-72
2022/12/28 11:59:34;;;;;;;0.80;0.80;;;10.90;99.90;;;;;;4938348;29;20871;-72
2022/12/28 12:02:02;;;;;;;1.47;1.00;;;11.10;99.90;;;;;;4938798;29;20507;-72
2022/12/28 12:04:29;;;;;;;1.33;0.90;;;11.20;99.90;;;;;;4926989;29;20474;-73
2022/12/28 12:07:00;;;;;;;0.93;0.80;;;11.30;99.90;;;;;;4936071;29;20437;-71
2022/12/28 12:09:37;;;;;;;0.60;0.60;;;11.30;99.90;;;;;;4938201;29;20435;-70
2022/12/28 12:12:28;;;;;;;1.13;1.10;;;11.40;99.90;;;;;;4946658;29;20420;-72
2022/12/28 12:15:08;;;;;;;1.30;1.20;;;11.40;99.90;;;;;;4914615;29;20516;-71
2022/12/28 12:18:11;;;;;;;1.97;1.50;;;11.30;99.90;;;;;;4918423;29;20794;-69
2022/12/28 12:20:49;;;;;;;0.80;0.80;;;11.30;99.90;;;;;;4918917;29;20414;-70
2022/12/28 12:23:47;;;;;;;1.03;0.90;;;11.20;99.90;;;;;;4924864;29;20416;-69
2022/12/28 12:26:36;;;;;;;1.07;1.03;;;11.10;99.90;;;;;;4928606;29;20417;-70
2022/12/28 12:29:25;;;;;;;1.10;0.97;;;11.00;99.90;;;;;;4917414;29;20424;-71
2022/12/28 12:32:18;;;;;;;2.60;1.20;;;10.90;99.90;;;;;;4922927;29;20570;-69
2022/12/28 12:34:47;;;;;;;1.23;1.00;;;10.80;99.90;;;;;;4958070;28;20435;-70
2022/12/28 12:37:36;;;;;;;0.97;0.97;;;10.80;99.90;;;;;;4957476;29;20925;-70
2022/12/28 12:40:26;;;;;;;1.52;1.42;;;10.70;99.90;;;;;;4961468;28;20784;-71
2022/12/28 12:43:37;;;;;;;1.75;1.13;;;10.50;99.90;;;;;;4961980;28;20255;-68
2022/12/28 12:46:23;;;;;;;2.40;1.03;;;10.50;99.90;;;;;;4951963;28;20698;-68
2022/12/28 12:48:58;;;;;;;1.13;1.00;;;10.50;99.90;;;;;;4957835;28;20409;-70
2022/12/28 12:51:59;;;;;;;2.00;1.90;;;10.50;99.90;;;;;;4964036;28;20187;-67
2022/12/28 12:54:27;;;;;;;1.63;1.50;;;10.50;99.90;;;;;;4976326;28;20202;-69
2022/12/28 12:57:02;;;;;;;1.20;1.20;;;10.50;99.90;;;;;;4973617;28;20253;-69
2022/12/28 12:59:42;;;;;;;1.08;0.90;;;10.50;99.90;;;;;;4957427;28;20173;-68
2022/12/28 13:02:10;;;;;;;1.30;1.20;;;10.50;99.90;;;;;;4963816;28;20178;-69
2022/12/28 13:04:39;;;;;;;1.10;1.05;;;10.40;99.90;;;;;;4976081;28;20212;-69
2022/12/28 13:07:15;;;;;;;1.42;1.33;;;10.40;99.90;;;;;;4976547;28;20232;-66
2022/12/28 13:09:42;;;;;;;1.77;1.67;;;10.40;99.90;;;;;;4976427;28;20635;-66
2022/12/28 13:12:14;;;;;;;1.10;1.00;;;10.40;99.90;;;;;;4976639;28;20409;-68
2022/12/28 13:14:45;;;;;;;1.10;0.95;;;10.40;99.90;;;;;;4976300;28;20259;-67
2022/12/28 13:17:18;;;;;;;1.50;1.40;;;10.50;99.90;;;;;;4976597;28;20536;-68
2022/12/28 13:19:44;;;;;;;1.52;1.10;;;10.40;99.90;;;;;;4962309;28;20185;-68
2022/12/28 13:22:31;;;;;;;1.80;1.40;;;10.40;99.90;;;;;;4957270;28;20178;-66
2022/12/28 13:24:59;;;;;;;0.98;0.98;;;10.40;99.90;;;;;;4956568;28;20209;-66
2022/12/28 13:27:32;;;;;;;2.20;1.17;;;10.40;99.90;;;;;;4956871;28;20632;-66
2022/12/28 13:29:59;;;;;;;0.80;0.80;;;10.40;99.90;;;;;;4966690;28;20584;-62
2022/12/28 13:32:31;;;;;;;0.67;0.60;;;10.40;99.90;;;;;;4956571;28;20204;-65
2022/12/28 13:34:57;;;;;;;0.95;0.82;;;10.30;99.90;;;;;;4967371;28;20444;-65
2022/12/28 13:37:23;;;;;;;0.73;0.73;;;10.30;99.90;;;;;;4976037;28;20199;-66
2022/12/28 13:39:49;;;;;;;0.85;0.80;;;10.30;99.90;;;;;;4975932;28;20172;-63
2022/12/28 13:42:25;;;;;;;1.57;0.80;;;10.40;99.90;;;;;;4975960;28;20201;-65
2022/12/28 13:44:57;;;;;;;1.42;0.80;;;10.40;99.90;;;;;;4975531;28;20603;-63
2022/12/28 13:47:29;;;;;;;1.08;1.00;;;10.40;99.90;;;;;;4976386;28;20254;-65
2022/12/28 13:49:54;;;;;;;0.70;0.70;;;10.40;99.90;;;;;;4975310;28;20185;-65
2022/12/28 13:52:26;;;;;;;0.70;0.70;;;10.40;99.90;;;;;;4958352;28;20533;-65
2022/12/28 13:54:57;;;;;;;1.13;0.82;;;10.40;99.90;;;;;;4956527;28;20732;-65
2022/12/28 13:57:25;;;;;;;0.73;0.73;;;10.40;99.90;;;;;;4957105;28;20230;-66
2022/12/28 13:59:53;;;;;;;0.73;0.73;;;10.40;99.90;;;;;;4956891;28;20228;-65
2022/12/28 14:02:22;;;;;;;0.93;0.70;;;10.40;99.90;;;;;;4964557;28;20176;-65
2022/12/28 14:04:50;;;;;;;0.77;0.77;;;10.40;99.90;;;;;;4966189;28;20202;-65
2022/12/28 14:07:18;;;;;;;1.23;0.85;;;10.50;99.90;;;;;;4967096;28;20598;-65
2022/12/28 14:09:45;;;;;;;2.08;0.90;;;10.50;99.90;;;;;;4965389;28;20267;-64
2022/12/28 14:12:12;;;;;;;1.23;1.13;;;10.50;99.90;;;;;;4964096;28;20181;-66
2022/12/28 14:14:39;;;;;;;0.57;0.57;;;10.40;99.90;;;;;;4966113;28;20553;-66
2022/12/28 14:17:06;;;;;;;0.85;0.85;;;10.40;99.90;;;;;;4964419;28;20217;-66
2022/12/28 14:19:33;;;;;;;0.80;0.80;;;10.40;99.90;;;;;;4966323;28;20512;-66
2022/12/28 14:21:59;;;;;;;1.40;1.17;;;10.40;99.90;;;;;;4955766;28;20177;-64
2022/12/28 14:24:25;;;;;;;0.87;0.87;;;10.40;99.90;;;;;;4965075;28;20514;-66
2022/12/28 14:26:56;;;;;;;0.45;0.45;;;10.40;99.90;;;;;;4961159;28;20426;-66
2022/12/28 14:29:33;;;;;;;1.05;0.90;;;10.40;99.90;;;;;;4955895;28;20180;-66
2022/12/28 14:32:02;;;;;;;0.93;0.90;;;10.40;99.90;;;;;;4967938;28;20177;-66
2022/12/28 14:34:30;;;;;;;0.70;0.70;;;10.40;99.90;;;;;;4974553;28;20294;-65
2022/12/28 14:36:57;;;;;;;1.30;0.80;;;10.40;99.90;;;;;;4975263;28;20665;-66
2022/12/28 14:39:36;;;;;;;0.88;0.80;;;10.40;99.90;;;;;;4974988;28;20236;-66
2022/12/28 14:42:04;;;;;;;0.82;0.82;;;10.40;99.90;;;;;;4975135;28;20173;-65
2022/12/28 14:44:35;;;;;;;1.10;1.10;;;10.40;99.90;;;;;;4974098;28;20298;-66
2022/12/28 14:47:01;;;;;;;1.20;1.10;;;10.40;99.90;;;;;;4973040;28;20173;-66
2022/12/28 14:49:29;;;;;;;0.90;0.90;;;10.40;99.90;;;;;;4973078;28;20180;-66
2022/12/28 14:52:07;;;;;;;0.82;0.70;;;10.40;99.90;;;;;;4972870;28;20168;-66
2022/12/28 14:54:42;;;;;;;0.85;0.85;;;10.40;99.90;;;;;;4972424;28;20195;-65
2022/12/28 14:57:25;;;;;;;0.93;0.93;;;10.30;99.90;;;;;;4972905;28;20564;-65
2022/12/28 15:00:01;;;;;;;1.05;0.80;;;10.30;99.90;;;;;;4972847;28;20523;-65
2022/12/28 15:02:32;;;;;;;0.70;0.70;;;10.30;99.90;;;;;;4974588;28;20173;-65
2022/12/28 15:04:59;;;;;;;1.08;1.08;;;10.30;99.90;;;;;;4974071;28;20685;-65
2022/12/28 15:07:24;;;;;;;1.13;1.02;;;10.20;99.90;;;;;;4974722;28;20179;-66
2022/12/28 15:09:50;;;;;;;1.20;1.10;;;10.30;99.90;;;;;;4974668;28;20634;-65
2022/12/28 15:12:20;;;;;;;0.90;0.80;;;10.20;99.90;;;;;;4973196;28;20173;-66
2022/12/28 15:14:48;;;;;;;0.90;0.90;;;10.20;99.90;;;;;;4974330;28;20199;-66
2022/12/28 15:17:14;;;;;;;1.52;1.40;;;10.20;99.90;;;;;;4973403;28;20176;-66
2022/12/28 15:19:44;;;;;;;1.50;1.42;;;10.20;99.90;;;;;;4975063;28;20188;-66
2022/12/28 15:22:10;;;;;;;3.28;1.23;;;10.20;99.90;;;;;;4974554;28;20172;-65
2022/12/28 15:24:37;;;;;;;1.05;1.05;;;10.10;99.90;;;;;;4973818;28;20205;-65
2022/12/28 15:27:03;;;;;;;0.73;0.70;;;10.10;99.90;;;;;;4970409;28;20651;-68
2022/12/28 15:29:29;;;;;;;0.73;0.73;;;10.10;99.90;;;;;;4955417;28;20180;-66
2022/12/28 15:31:54;;;;;;;1.80;0.60;;;10.10;99.90;;;;;;4955234;28;20169;-65
2022/12/28 15:34:20;;;;;;;1.00;0.93;;;10.10;99.90;;;;;;4954703;28;20198;-66
2022/12/28 15:36:46;;;;;;;0.87;0.87;;;10.10;99.90;;;;;;4955006;28;20174;-65
2022/12/28 15:39:12;;;;;;;1.50;1.40;;;10.00;99.90;;;;;;4954938;28;20176;-65
2022/12/28 15:41:48;;;;;;;0.98;0.98;;;10.10;99.90;;;;;;4954999;28;20256;-65
2022/12/28 15:44:14;;;;;;;1.38;1.05;;;10.00;99.90;;;;;;4954691;28;20620;-65
2022/12/28 15:46:40;;;;;;;1.10;1.00;;;9.90;99.90;;;;;;4954795;28;20180;-66
2022/12/28 15:49:06;;;;;;;1.50;1.40;;;9.80;99.90;;;;;;4954956;28;20182;-65
2022/12/28 15:51:32;;;;;;;1.13;1.10;;;9.80;99.90;;;;;;4954918;28;20173;-64
2022/12/28 15:53:58;;;;;;;2.97;1.98;;;9.70;99.90;;;;;;4954478;28;20444;-65
2022/12/28 15:56:25;;;;;;;1.70;1.50;;;9.70;99.90;;;;;;4957681;28;20184;-66
2022/12/28 15:58:55;;;;;;;1.50;1.40;;;9.60;99.90;;;;;;4974698;28;20603;-66
2022/12/28 16:01:22;;;;;;;1.85;1.65;;;9.50;99.90;;;;;;4974183;28;20194;-66
2022/12/28 16:03:49;;;;;;;1.80;1.42;;;9.40;99.90;;;;;;4973450;28;20198;-67
2022/12/28 16:06:15;;;;;;;1.75;1.58;;;9.40;99.90;;;;;;4973699;28;20195;-66
2022/12/28 16:08:40;;;;;;;3.67;2.10;;;9.30;99.90;;;;;;4970178;28;20236;-66
2022/12/28 16:11:14;;;;;;;2.10;1.90;;;9.20;99.90;;;;;;4960790;28;20732;-65
2022/12/28 16:13:40;;;;;;;2.72;1.77;;;9.20;99.90;;;;;;4973658;28;20173;-66
2022/12/28 16:16:07;;;;;;;1.93;1.73;;;9.10;99.90;;;;;;4973861;28;20187;-65
2022/12/28 16:18:33;;;;;;;2.45;2.28;;;9.10;99.90;;;;;;4975152;28;20408;-65
2022/12/28 16:21:04;;;;;;;1.73;1.63;;;9.10;99.90;;;;;;4977569;28;20176;-65
2022/12/28 16:23:32;;;;;;;1.70;1.60;;;9.10;99.90;;;;;;4968165;28;20503;-65
2022/12/28 16:25:58;;;;;;;1.75;1.58;;;9.00;99.90;;;;;;4958302;28;20559;-66
2022/12/28 16:28:25;;;;;;;2.55;1.60;;;9.00;99.90;;;;;;4958220;28;20173;-66
2022/12/28 16:30:51;;;;;;;1.80;1.65;;;9.00;99.90;;;;;;4958036;28;20200;-65
2022/12/28 16:33:16;;;;;;;1.63;1.50;;;9.00;99.90;;;;;;4957662;28;20209;-65
2022/12/28 16:35:45;;;;;;;1.50;1.40;;;9.00;99.90;;;;;;4957816;28;20424;-65
2022/12/28 16:38:11;;;;;;;1.50;1.15;;;9.00;99.90;;;;;;4958074;28;20185;-66
2022/12/28 16:40:37;;;;;;;1.75;1.63;;;9.00;99.90;;;;;;4957841;28;20179;-66
2022/12/28 16:43:06;;;;;;;1.47;1.37;;;9.00;99.90;;;;;;4957648;28;20185;-67
2022/12/28 16:45:35;;;;;;;2.70;2.00;;;9.00;99.90;;;;;;4968550;28;20295;-65
2022/12/28 16:48:01;;;;;;;1.88;1.77;;;9.00;99.90;;;;;;4975962;28;20251;-65
2022/12/28 16:50:27;;;;;;;2.25;2.08;;;9.00;99.90;;;;;;4977190;28;20168;-65
2022/12/28 16:52:53;;;;;;;1.37;1.27;;;9.00;99.90;;;;;;4976868;28;20169;-65
2022/12/28 16:55:19;;;;;;;1.87;1.77;;;9.00;99.90;;;;;;4976964;28;20269;-65
2022/12/28 16:57:45;;;;;;;1.58;1.48;;;8.90;99.90;;;;;;4976889;28;20195;-66
2022/12/28 17:00:11;;;;;;;1.70;1.60;;;8.90;99.90;;;;;;4976510;28;20180;-67
2022/12/28 17:02:37;;;;;;;1.70;1.60;;;8.90;99.90;;;;;;4976739;28;20944;-66
2022/12/28 17:05:03;;;;;;;1.67;1.57;;;8.90;99.90;;;;;;4976238;28;20220;-66
2022/12/28 17:07:28;;;;;;;1.90;1.47;;;8.90;99.90;;;;;;4976884;28;20176;-66
2022/12/28 17:09:54;;;;;;;1.43;1.20;;;8.80;99.90;;;;;;4977060;28;20711;-65
2022/12/28 17:12:20;;;;;;;4.57;1.70;;;8.80;99.90;;;;;;4976453;28;20176;-64
2022/12/28 17:14:45;;;;;;;1.40;1.30;;;8.80;99.90;;;;;;4975901;28;20208;-66
2022/12/28 17:17:11;;;;;;;2.20;2.00;;;8.70;99.90;;;;;;4976367;28;20179;-65
2022/12/28 17:19:36;;;;;;;1.70;1.60;;;8.80;99.90;;;;;;4964155;28;20189;-65
2022/12/28 17:22:03;;;;;;;1.67;1.60;;;8.80;99.90;;;;;;4975814;28;20183;-65
2022/12/28 17:24:29;;;;;;;1.70;1.60;;;8.80;99.90;;;;;;4975877;28;20208;-64
2022/12/28 17:26:54;;;;;;;2.90;1.37;;;8.80;99.90;;;;;;4969407;28;20176;-65
2022/12/28 17:29:20;;;;;;;1.40;1.30;;;8.80;99.90;;;;;;4958476;28;20180;-63
2022/12/28 17:31:47;;;;;;;1.40;1.30;;;8.80;99.90;;;;;;4956377;28;20524;-65
2022/12/28 17:34:13;;;;;;;1.50;1.40;;;8.80;99.90;;;;;;4961582;28;20459;-67
2022/12/28 17:36:39;;;;;;;1.10;1.10;;;8.80;99.90;;;;;;4966067;28;20172;-67
2022/12/28 17:39:05;;;;;;;2.43;2.23;;;8.90;99.90;;;;;;4964020;28;20179;-67
2022/12/28 17:41:30;;;;;;;1.47;1.37;;;8.90;99.90;;;;;;4968850;28;20216;-67
2022/12/28 17:43:58;;;;;;;1.20;1.20;;;8.90;99.90;;;;;;4968681;28;20204;-67
2022/12/28 17:46:26;;;;;;;2.05;1.90;;;8.80;99.90;;;;;;4966110;28;20567;-67
2022/12/28 17:48:53;;;;;;;1.63;1.50;;;8.80;99.90;;;;;;4968168;28;20512;-67
2022/12/28 17:51:19;;;;;;;1.60;1.50;;;8.90;99.90;;;;;;4956931;28;20172;-67
2022/12/28 17:53:45;;;;;;;2.20;1.37;;;8.90;99.90;;;;;;4966071;28;20207;-67
2022/12/28 17:56:12;;;;;;;1.90;1.80;;;8.90;99.90;;;;;;4964200;28;20183;-68
2022/12/28 17:58:43;;;;;;;2.92;1.70;;;8.90;99.90;;;;;;4964563;28;20424;-66
2022/12/28 18:01:10;;;;;;;1.80;1.70;;;8.90;99.90;;;;;;4963614;28;20177;-67
2022/12/28 18:03:36;;;;;;;3.42;1.63;;;8.90;99.90;;;;;;4957296;28;20177;-67
2022/12/28 18:06:02;;;;;;;2.15;1.80;;;8.90;99.90;;;;;;4955428;28;20259;-66
2022/12/28 18:08:28;;;;;;;3.22;2.13;;;8.90;99.90;;;;;;4956325;28;20177;-67
2022/12/28 18:10:54;;;;;;;1.20;1.10;;;8.90;99.90;;;;;;4956250;28;20171;-67
2022/12/28 18:13:21;;;;;;;1.50;1.40;;;8.90;99.90;;;;;;4964229;28;20509;-67